createdAt,value
2023-02-22T00:01:47.538Z,-13.34
2023-02-22T00:04:16.200Z,-13.40
2023-02-22T00:06:45.476Z,-13.43
2023-02-22T00:09:14.115Z,-13.43
2023-02-22T00:11:46.693Z,-13.44
2023-02-22T00:14:15.538Z,-13.45
2023-02-22T00:16:42.903Z,-13.46
2023-02-22T00:19:10.721Z,-13.49
2023-02-22T00:21:38.084Z,-13.46
2023-02-22T00:24:23.047Z,-13.46
2023-02-22T00:26:51.476Z,-13.49
2023-02-22T00:29:20.310Z,-13.50
2023-02-22T00:31:47.714Z,-13.49
2023-02-22T00:34:15.275Z,-13.52
2023-02-22T00:36:45.966Z,-13.55
2023-02-22T00:39:13.389Z,-13.59
2023-02-22T00:41:41.143Z,-13.59
2023-02-22T00:44:08.399Z,-13.62
2023-02-22T00:46:37.165Z,-13.63
2023-02-22T00:49:05.413Z,-13.61
2023-02-22T00:51:34.052Z,-13.60
2023-02-22T00:54:02.053Z,-13.64
2023-02-22T00:56:29.295Z,-13.63
2023-02-22T00:58:56.935Z,-13.64
2023-02-22T01:01:24.583Z,-13.68
2023-02-22T01:03:53.334Z,-13.75
2023-02-22T01:06:22.796Z,-13.79
2023-02-22T01:08:51.525Z,-13.84
2023-02-22T01:11:19.111Z,-13.86
2023-02-22T01:13:46.540Z,-13.87
2023-02-22T01:16:14.183Z,-13.97
2023-02-22T01:18:41.622Z,-14.00
2023-02-22T01:21:10.409Z,-14.04
2023-02-22T01:23:37.787Z,-14.04
2023-02-22T01:26:06.225Z,-14.05
2023-02-22T01:28:33.954Z,-14.09
2023-02-22T01:31:03.430Z,-14.07
2023-02-22T01:33:31.164Z,-14.13
2023-02-22T01:36:00.210Z,-14.16
2023-02-22T01:38:29.623Z,-14.23
2023-02-22T01:40:56.946Z,-14.25
2023-02-22T01:43:29.792Z,-14.36
2023-02-22T01:46:00.878Z,-14.27
2023-02-22T01:48:35.247Z,-14.33
2023-02-22T01:51:11.230Z,-14.27
2023-02-22T01:53:45.452Z,-14.40
2023-02-22T01:56:15.317Z,-14.33
2023-02-22T01:58:47.179Z,-14.34
2023-02-22T02:01:16.770Z,-14.32
2023-02-22T02:03:45.692Z,-14.33
2023-02-22T02:06:18.329Z,-14.34
2023-02-22T02:08:54.155Z,-14.34
2023-02-22T02:11:25.709Z,-14.37
2023-02-22T02:13:55.343Z,-14.37
2023-02-22T02:16:24.900Z,-14.43
2023-02-22T02:18:52.866Z,-14.42
2023-02-22T02:21:49.981Z,-14.43
2023-02-22T02:24:51.733Z,-14.47
2023-02-22T02:27:20.586Z,-14.51
2023-02-22T02:30:28.622Z,-14.53
2023-02-22T02:33:03.826Z,-14.66
2023-02-22T02:35:48.103Z,-14.61
2023-02-22T02:38:25.649Z,-14.75
2023-02-22T02:41:03.668Z,-14.71
2023-02-22T02:43:36.439Z,-14.77
2023-02-22T02:46:09.762Z,-14.78
2023-02-22T02:48:43.559Z,-14.80
2023-02-22T02:51:11.579Z,-14.78
2023-02-22T02:53:44.474Z,-14.80
2023-02-22T02:56:11.927Z,-14.87
2023-02-22T02:58:49.170Z,-14.90
2023-02-22T03:01:28.515Z,-14.90
2023-02-22T03:04:16.171Z,-14.91
2023-02-22T03:07:28.831Z,-14.93
2023-02-22T03:10:11.388Z,-14.97
2023-02-22T03:12:48.029Z,-14.94
2023-02-22T03:15:26.813Z,-14.95
2023-02-22T03:18:02.481Z,-14.97
2023-02-22T03:20:43.373Z,-15.00
2023-02-22T03:23:19.416Z,-14.98
2023-02-22T03:25:53.826Z,-14.98
2023-02-22T03:28:26.484Z,-15.00
2023-02-22T03:30:59.334Z,-15.05
2023-02-22T03:33:34.046Z,-15.04
2023-02-22T03:36:12.507Z,-15.16
2023-02-22T03:38:42.542Z,-15.12
2023-02-22T03:41:16.742Z,-15.06
2023-02-22T03:43:49.011Z,-15.07
2023-02-22T03:46:19.522Z,-15.07
2023-02-22T03:48:54.738Z,-15.09
2023-02-22T03:51:24.921Z,-15.10
2023-02-22T03:53:58.003Z,-15.05
2023-02-22T03:56:35.975Z,-15.09
2023-02-22T03:59:05.332Z,-15.09
2023-02-22T04:01:33.082Z,-15.14
2023-02-22T04:04:00.514Z,-15.17
2023-02-22T04:06:29.752Z,-15.17
2023-02-22T04:08:58.529Z,-15.17
2023-02-22T04:11:26.425Z,-15.18
2023-02-22T04:13:54.917Z,-15.22
2023-02-22T04:16:22.550Z,-15.24
2023-02-22T04:18:51.123Z,-15.21
2023-02-22T04:21:19.942Z,-15.20
2023-02-22T04:23:51.394Z,-15.24
2023-02-22T04:26:19.138Z,-15.21
2023-02-22T04:28:52.266Z,-15.21
2023-02-22T04:31:23.357Z,-15.19
2023-02-22T04:33:52.368Z,-15.23
2023-02-22T04:36:25.717Z,-15.18
2023-02-22T04:38:55.287Z,-15.16
2023-02-22T04:41:25.245Z,-15.16
2023-02-22T04:43:53.163Z,-15.20
2023-02-22T04:46:25.468Z,-15.20
2023-02-22T04:48:54.045Z,-15.19
2023-02-22T04:51:24.454Z,-15.19
2023-02-22T04:54:08.758Z,-15.17
2023-02-22T04:56:38.288Z,-15.12
2023-02-22T04:59:06.448Z,-15.13
2023-02-22T05:01:34.500Z,-15.15
2023-02-22T05:04:02.925Z,-15.15
2023-02-22T05:06:30.229Z,-15.16
2023-02-22T05:08:57.537Z,-15.11
2023-02-22T05:11:26.581Z,-15.10
2023-02-22T05:13:53.837Z,-15.11
2023-02-22T05:16:21.349Z,-15.13
2023-02-22T05:18:48.801Z,-15.07
2023-02-22T05:21:16.456Z,-15.05
2023-02-22T05:23:44.194Z,-15.03
2023-02-22T05:26:11.805Z,-15.03
2023-02-22T05:28:40.585Z,-15.01
2023-02-22T05:31:08.822Z,-14.98
2023-02-22T05:33:36.474Z,-14.97
2023-02-22T05:36:04.057Z,-14.97
2023-02-22T05:38:31.307Z,-14.89
2023-02-22T05:40:58.333Z,-14.88
2023-02-22T05:43:25.758Z,-14.86
2023-02-22T05:45:55.735Z,-14.82
2023-02-22T05:48:23.221Z,-14.76
2023-02-22T05:50:50.530Z,-14.76
2023-02-22T05:53:17.814Z,-14.79
2023-02-22T05:55:46.565Z,-14.72
2023-02-22T05:58:15.257Z,-14.57
2023-02-22T06:00:42.539Z,-14.47
2023-02-22T06:03:12.746Z,-14.34
2023-02-22T06:05:41.933Z,-14.18
2023-02-22T06:08:09.720Z,-14.08
2023-02-22T06:10:37.178Z,-13.96
2023-02-22T06:13:06.043Z,-13.88
2023-02-22T06:15:33.535Z,-13.71
2023-02-22T06:18:01.756Z,-13.54
2023-02-22T06:20:31.268Z,-13.42
2023-02-22T06:22:59.355Z,-13.23
2023-02-22T06:25:28.179Z,-13.09
2023-02-22T06:27:55.443Z,-13.01
2023-02-22T06:30:24.689Z,-12.98
2023-02-22T06:32:52.113Z,-12.77
2023-02-22T06:35:19.777Z,-12.70
2023-02-22T06:37:48.771Z,-12.69
2023-02-22T06:40:16.556Z,-12.72
2023-02-22T06:42:44.380Z,-12.76
2023-02-22T06:45:11.730Z,-12.68
2023-02-22T06:47:40.526Z,-12.48
2023-02-22T06:50:17.541Z,-12.28
2023-02-22T06:52:44.908Z,-12.13
2023-02-22T06:55:17.550Z,-12.07
2023-02-22T06:57:45.007Z,-11.95
2023-02-22T07:00:14.639Z,-11.82
2023-02-22T07:02:42.660Z,-11.77
2023-02-22T07:05:11.884Z,-11.71
2023-02-22T07:07:39.406Z,-11.65
2023-02-22T07:10:08.426Z,-11.56
2023-02-22T07:12:37.212Z,-11.55
2023-02-22T07:15:05.042Z,-11.54
2023-02-22T07:17:32.277Z,-11.40
2023-02-22T07:19:59.799Z,-11.28
2023-02-22T07:22:27.373Z,-11.27
2023-02-22T07:24:55.488Z,-11.17
2023-02-22T07:27:22.776Z,-11.14
2023-02-22T07:29:51.581Z,-11.03
2023-02-22T07:32:19.172Z,-11.09
2023-02-22T07:34:46.453Z,-11.01
2023-02-22T07:37:14.856Z,-10.95
2023-02-22T07:39:43.865Z,-10.94
2023-02-22T07:42:11.164Z,-10.81
2023-02-22T07:44:38.600Z,-10.67
2023-02-22T07:47:07.501Z,-10.63
2023-02-22T07:49:34.870Z,-10.55
2023-02-22T07:52:02.365Z,-10.41
2023-02-22T07:54:29.777Z,-10.28
2023-02-22T07:56:56.934Z,-10.17
2023-02-22T07:59:24.583Z,-10.10
2023-02-22T08:01:51.852Z,-9.99
2023-02-22T08:04:21.045Z,-10.10
2023-02-22T08:06:49.739Z,-10.07
2023-02-22T08:09:16.986Z,-9.96
2023-02-22T08:11:44.252Z,-10.00
2023-02-22T08:14:11.693Z,-9.99
2023-02-22T08:16:39.232Z,-9.99
2023-02-22T08:19:06.453Z,-9.86
2023-02-22T08:21:35.153Z,-9.69
2023-02-22T08:24:02.857Z,-9.55
2023-02-22T08:26:30.282Z,-9.64
2023-02-22T08:28:57.574Z,-9.75
2023-02-22T08:31:24.852Z,-9.59
2023-02-22T08:33:52.166Z,-9.51
2023-02-22T08:36:19.514Z,-9.44
2023-02-22T08:38:48.463Z,-9.36
2023-02-22T08:41:15.929Z,-9.34
2023-02-22T08:43:44.351Z,-9.20
2023-02-22T08:46:11.699Z,-9.05
2023-02-22T08:48:39.047Z,-8.90
2023-02-22T08:51:06.576Z,-8.79
2023-02-22T08:53:33.971Z,-8.59
2023-02-22T08:56:02.684Z,-8.48
2023-02-22T08:58:30.011Z,-8.38
2023-02-22T09:00:58.048Z,-8.41
2023-02-22T09:03:25.336Z,-8.36
2023-02-22T09:05:53.012Z,-8.38
2023-02-22T09:08:20.761Z,-8.24
2023-02-22T09:10:49.961Z,-8.17
2023-02-22T09:13:19.492Z,-8.20
2023-02-22T09:15:46.875Z,-8.12
2023-02-22T09:18:14.848Z,-7.95
2023-02-22T09:20:42.344Z,-7.79
2023-02-22T09:23:09.946Z,-7.62
2023-02-22T09:25:38.934Z,-7.53
2023-02-22T09:28:06.449Z,-7.51
2023-02-22T09:30:36.826Z,-7.44
2023-02-22T09:33:06.449Z,-7.31
2023-02-22T09:35:36.439Z,-7.25
2023-02-22T09:38:06.587Z,-7.29
2023-02-22T09:40:41.239Z,-7.38
2023-02-22T09:43:26.253Z,-7.43
2023-02-22T09:46:12.315Z,-7.49
2023-02-22T09:48:51.663Z,-7.34
2023-02-22T09:51:21.086Z,-7.15
2023-02-22T09:53:52.519Z,-7.02
2023-02-22T09:56:21.365Z,-6.88
2023-02-22T09:58:52.412Z,-6.76
2023-02-22T10:01:27.480Z,-6.61
2023-02-22T10:04:02.313Z,-6.51
2023-02-22T10:06:30.553Z,-6.66
2023-02-22T10:09:01.389Z,-7.08
2023-02-22T10:11:49.770Z,-7.14
2023-02-22T10:14:33.519Z,-6.83
2023-02-22T10:17:10.108Z,-6.63
2023-02-22T10:19:46.479Z,-6.57
2023-02-22T10:22:28.025Z,-6.57
2023-02-22T10:25:00.764Z,-6.69
2023-02-22T10:27:33.276Z,-6.60
2023-02-22T10:30:18.885Z,-6.58
2023-02-22T10:32:59.566Z,-6.43
2023-02-22T10:35:29.937Z,-6.32
2023-02-22T10:38:02.300Z,-6.46
2023-02-22T10:40:32.826Z,-6.38
2023-02-22T10:43:05.339Z,-6.23
2023-02-22T10:45:36.086Z,-6.08
2023-02-22T10:48:11.795Z,-6.00
2023-02-22T10:50:42.336Z,-5.83
2023-02-22T10:53:11.208Z,-5.90
2023-02-22T10:56:09.376Z,-6.06
2023-02-22T10:58:49.293Z,-6.02
2023-02-22T11:01:23.014Z,-5.94
2023-02-22T11:04:09.135Z,-5.84
2023-02-22T11:06:36.975Z,-5.67
2023-02-22T11:09:13.549Z,-5.59
2023-02-22T11:11:42.813Z,-5.62
2023-02-22T11:14:11.158Z,-5.71
2023-02-22T11:16:42.321Z,-5.70
2023-02-22T11:19:20.843Z,-5.67
2023-02-22T11:21:51.630Z,-5.67
2023-02-22T11:24:24.102Z,-5.79
2023-02-22T11:26:56.489Z,-5.97
2023-02-22T11:29:28.278Z,-6.19
2023-02-22T11:31:56.267Z,-6.34
2023-02-22T11:34:35.344Z,-6.53
2023-02-22T11:37:18.494Z,-6.31
2023-02-22T11:39:46.395Z,-6.30
2023-02-22T11:42:25.552Z,-6.53
2023-02-22T11:45:09.383Z,-6.56
2023-02-22T11:47:46.478Z,-6.41
2023-02-22T11:50:25.115Z,-6.58
2023-02-22T11:53:02.915Z,-6.61
2023-02-22T11:55:42.731Z,-6.72
2023-02-22T11:58:37.100Z,-6.88
2023-02-22T12:01:12.144Z,-6.75
2023-02-22T12:03:58.591Z,-6.79
2023-02-22T12:06:42.937Z,-6.80
2023-02-22T12:09:18.813Z,-6.54
2023-02-22T12:12:00.720Z,-6.45
2023-02-22T12:14:34.698Z,-6.35
2023-02-22T12:17:13.944Z,-6.02
2023-02-22T12:19:45.466Z,-5.94
2023-02-22T12:22:35.697Z,-5.84
2023-02-22T12:25:09.868Z,-5.77
2023-02-22T12:27:44.903Z,-5.83
2023-02-22T12:30:19.280Z,-5.95
2023-02-22T12:32:51.353Z,-6.04
2023-02-22T12:35:23.348Z,-6.22
2023-02-22T12:38:01.947Z,-6.23
2023-02-22T12:40:37.150Z,-6.24
2023-02-22T12:43:12.762Z,-6.25
2023-02-22T12:45:45.537Z,-6.26
2023-02-22T12:48:30.474Z,-6.24
2023-02-22T12:51:12.568Z,-6.24
2023-02-22T12:53:49.847Z,-6.31
2023-02-22T12:56:24.272Z,-6.56
2023-02-22T12:58:58.341Z,-6.63
2023-02-22T13:01:30.428Z,-6.73
2023-02-22T13:03:58.007Z,-6.64
2023-02-22T13:06:43.742Z,-6.61
2023-02-22T13:09:33.591Z,-6.60
2023-02-22T13:12:08.738Z,-6.52
2023-02-22T13:14:44.142Z,-6.53
2023-02-22T13:17:21.202Z,-6.70
2023-02-22T13:19:55.987Z,-7.01
2023-02-22T13:22:30.514Z,-7.21
2023-02-22T13:25:04.885Z,-7.29
2023-02-22T13:27:38.569Z,-7.19
2023-02-22T13:30:14.733Z,-7.08
2023-02-22T13:32:57.853Z,-6.99
2023-02-22T13:35:41.895Z,-7.09
2023-02-22T13:38:43.136Z,-7.30
2023-02-22T13:41:28.754Z,-7.48
2023-02-22T13:44:38.707Z,-7.65
2023-02-22T13:47:33.790Z,-7.74
2023-02-22T13:50:17.125Z,-7.84
2023-02-22T13:52:46.087Z,-7.87
2023-02-22T13:55:20.697Z,-8.08
2023-02-22T13:57:51.804Z,-8.36
2023-02-22T14:00:25.979Z,-8.46
2023-02-22T14:03:02.609Z,-8.54
2023-02-22T14:05:49.903Z,-8.49
2023-02-22T14:08:42.231Z,-8.42
2023-02-22T14:11:54.282Z,-8.44
2023-02-22T14:14:24.914Z,-8.56
2023-02-22T14:17:21.977Z,-8.77
2023-02-22T14:20:19.597Z,-8.84
2023-02-22T14:22:48.381Z,-8.84
2023-02-22T14:25:36.937Z,-8.84
2023-02-22T14:28:06.914Z,-8.94
2023-02-22T14:30:38.626Z,-9.02
2023-02-22T14:33:50.640Z,-9.08
2023-02-22T14:36:19.182Z,-9.08
2023-02-22T14:38:47.562Z,-9.14
2023-02-22T14:41:17.853Z,-9.19
2023-02-22T14:43:46.673Z,-9.26
2023-02-22T14:46:20.568Z,-9.33
2023-02-22T14:48:50.630Z,-9.37
2023-02-22T14:51:25.134Z,-9.47
2023-02-22T14:53:57.625Z,-9.58
2023-02-22T14:56:30.286Z,-9.58
2023-02-22T14:59:11.481Z,-9.68
2023-02-22T15:01:50.867Z,-9.64
2023-02-22T15:04:25.811Z,-9.67
2023-02-22T15:06:54.191Z,-9.69
2023-02-22T15:09:25.756Z,-9.78
2023-02-22T15:12:12.965Z,-9.79
2023-02-22T15:14:44.820Z,-9.83
2023-02-22T15:17:19.360Z,-9.82
2023-02-22T15:19:50.594Z,-9.84
2023-02-22T15:22:23.476Z,-9.91
2023-02-22T15:24:59.063Z,-9.93
2023-02-22T15:27:26.682Z,-9.97
2023-02-22T15:30:00.248Z,-10.12
2023-02-22T15:32:34.621Z,-10.03
2023-02-22T15:35:18.763Z,-10.00
2023-02-22T15:37:47.556Z,-10.09
2023-02-22T15:40:17.085Z,-10.18
2023-02-22T15:42:46.923Z,-10.26
2023-02-22T15:45:16.714Z,-10.28
2023-02-22T15:47:45.444Z,-10.30
2023-02-22T15:50:21.553Z,-10.28
2023-02-22T15:52:58.198Z,-10.27
2023-02-22T15:55:29.652Z,-10.36
2023-02-22T15:58:01.741Z,-10.40
2023-02-22T16:00:36.419Z,-10.41
2023-02-22T16:03:07.653Z,-10.44
2023-02-22T16:05:40.605Z,-10.52
2023-02-22T16:08:18.183Z,-10.50
2023-02-22T16:10:53.702Z,-10.51
2023-02-22T16:13:31.546Z,-10.48
2023-02-22T16:16:03.336Z,-10.52
2023-02-22T16:18:35.018Z,-10.58
2023-02-22T16:21:06.846Z,-10.50
2023-02-22T16:23:45.087Z,-10.53
2023-02-22T16:26:28.458Z,-10.49
2023-02-22T16:28:58.228Z,-10.54
2023-02-22T16:31:27.988Z,-10.55
2023-02-22T16:33:57.032Z,-10.67
2023-02-22T16:36:37.841Z,-10.67
2023-02-22T16:39:07.370Z,-10.64
2023-02-22T16:41:34.891Z,-10.63
2023-02-22T16:44:02.976Z,-10.65
2023-02-22T16:46:30.388Z,-10.69
2023-02-22T16:49:03.455Z,-10.75
2023-02-22T16:51:39.855Z,-10.68
2023-02-22T16:54:11.802Z,-10.68
2023-02-22T16:56:40.746Z,-10.75
2023-02-22T16:59:11.515Z,-10.60
2023-02-22T17:01:38.932Z,-10.61
2023-02-22T17:04:14.813Z,-10.63
2023-02-22T17:06:42.432Z,-10.64
2023-02-22T17:09:10.294Z,-10.66
2023-02-22T17:11:38.861Z,-10.67
2023-02-22T17:14:06.695Z,-10.67
2023-02-22T17:16:34.316Z,-10.66
2023-02-22T17:19:02.083Z,-10.64
2023-02-22T17:21:30.778Z,-10.66
2023-02-22T17:23:58.278Z,-10.70
2023-02-22T17:26:26.425Z,-10.74
2023-02-22T17:28:53.920Z,-10.77
2023-02-22T17:31:26.286Z,-10.84
2023-02-22T17:33:56.534Z,-10.78
2023-02-22T17:36:24.102Z,-10.76
2023-02-22T17:38:52.854Z,-10.78
2023-02-22T17:41:20.172Z,-10.78
2023-02-22T17:43:47.421Z,-10.75
2023-02-22T17:46:14.904Z,-10.78
2023-02-22T17:48:42.629Z,-10.76
2023-02-22T17:51:12.111Z,-10.89
2023-02-22T17:53:39.812Z,-10.82
2023-02-22T17:56:10.472Z,-10.86
2023-02-22T17:58:37.769Z,-10.85
2023-02-22T18:01:05.370Z,-10.87
2023-02-22T18:03:33.097Z,-10.92
2023-02-22T18:06:01.742Z,-10.94
2023-02-22T18:08:32.272Z,-10.94
2023-02-22T18:11:05.330Z,-10.95
2023-02-22T18:13:34.110Z,-10.95
2023-02-22T18:16:03.008Z,-10.97
2023-02-22T18:18:30.399Z,-10.97
2023-02-22T18:21:00.107Z,-10.94
2023-02-22T18:23:29.591Z,-10.95
2023-02-22T18:26:10.040Z,-10.93
2023-02-22T18:28:40.328Z,-10.90
2023-02-22T18:31:08.374Z,-10.89
2023-02-22T18:33:35.883Z,-10.93
2023-02-22T18:36:03.417Z,-10.97
2023-02-22T18:38:30.697Z,-11.00
2023-02-22T18:41:00.213Z,-11.06
2023-02-22T18:43:28.110Z,-11.02
2023-02-22T18:46:05.574Z,-11.09
2023-02-22T18:48:33.306Z,-11.05
2023-02-22T18:51:01.547Z,-11.05
2023-02-22T18:53:29.513Z,-11.00
2023-02-22T18:55:56.823Z,-11.04
2023-02-22T18:58:24.087Z,-11.02
2023-02-22T19:00:51.541Z,-11.02
2023-02-22T19:03:20.455Z,-11.03
2023-02-22T19:05:52.158Z,-11.05
2023-02-22T19:08:19.872Z,-11.05
2023-02-22T19:10:49.654Z,-11.09
2023-02-22T19:13:17.318Z,-11.14
2023-02-22T19:15:49.079Z,-11.11
2023-02-22T19:18:16.336Z,-11.06
2023-02-22T19:20:46.183Z,-11.08
2023-02-22T19:23:13.448Z,-11.09
2023-02-22T19:25:41.388Z,-11.14
2023-02-22T19:28:08.772Z,-11.13
2023-02-22T19:30:36.048Z,-11.12
2023-02-22T19:33:05.002Z,-11.14
2023-02-22T19:35:32.335Z,-11.19
2023-02-22T19:38:01.097Z,-11.24
2023-02-22T19:40:28.776Z,-11.23
2023-02-22T19:42:57.591Z,-11.24
2023-02-22T19:45:25.252Z,-11.25
2023-02-22T19:47:55.165Z,-11.28
2023-02-22T19:50:22.471Z,-11.23
2023-02-22T19:52:49.736Z,-11.24
2023-02-22T19:55:18.736Z,-11.25
2023-02-22T19:57:46.559Z,-11.31
2023-02-22T20:00:24.044Z,-11.32
2023-02-22T20:03:05.744Z,-11.29
2023-02-22T20:05:33.663Z,-11.37
2023-02-22T20:08:01.009Z,-11.38
2023-02-22T20:10:29.951Z,-11.37
2023-02-22T20:12:57.297Z,-11.39
2023-02-22T20:15:24.516Z,-11.42
2023-02-22T20:17:52.146Z,-11.42
2023-02-22T20:20:19.528Z,-11.40
2023-02-22T20:22:46.895Z,-11.38
2023-02-22T20:25:14.224Z,-11.40
2023-02-22T20:27:43.033Z,-11.41
2023-02-22T20:30:11.689Z,-11.42
2023-02-22T20:32:39.842Z,-11.44
2023-02-22T20:35:08.128Z,-11.44
2023-02-22T20:37:35.706Z,-11.44
2023-02-22T20:40:05.178Z,-11.46
2023-02-22T20:42:32.675Z,-11.45
2023-02-22T20:45:04.785Z,-11.48
2023-02-22T20:47:32.513Z,-11.52
2023-02-22T20:49:59.901Z,-11.51
2023-02-22T20:52:27.509Z,-11.45
2023-02-22T20:54:56.450Z,-11.48
2023-02-22T20:57:23.747Z,-11.50
2023-02-22T20:59:51.214Z,-11.50
2023-02-22T21:02:20.031Z,-11.48
2023-02-22T21:04:47.472Z,-11.49
2023-02-22T21:07:14.819Z,-11.52
2023-02-22T21:09:42.493Z,-11.53
2023-02-22T21:12:13.699Z,-11.62
2023-02-22T21:14:41.522Z,-11.59
2023-02-22T21:17:09.593Z,-11.60
2023-02-22T21:20:00.164Z,-11.63
2023-02-22T21:22:29.601Z,-11.64
2023-02-22T21:24:57.408Z,-11.67
2023-02-22T21:27:24.668Z,-11.68
2023-02-22T21:29:52.645Z,-11.66
2023-02-22T21:32:20.324Z,-11.67
2023-02-22T21:34:47.767Z,-11.64
2023-02-22T21:37:18.312Z,-11.66
2023-02-22T21:39:47.675Z,-11.68
2023-02-22T21:42:15.065Z,-11.64
2023-02-22T21:44:42.320Z,-11.63
2023-02-22T21:47:09.583Z,-11.68
2023-02-22T21:49:38.254Z,-11.70
2023-02-22T21:52:07.854Z,-11.72
2023-02-22T21:54:36.679Z,-11.70
2023-02-22T21:57:06.362Z,-11.67
2023-02-22T21:59:33.909Z,-11.73
2023-02-22T22:02:01.933Z,-11.74
2023-02-22T22:04:31.775Z,-11.77
2023-02-22T22:07:01.452Z,-11.78
2023-02-22T22:09:33.365Z,-11.76
2023-02-22T22:12:06.215Z,-11.76
2023-02-22T22:14:34.745Z,-11.74
2023-02-22T22:17:05.680Z,-11.73
2023-02-22T22:19:38.534Z,-11.76
2023-02-22T22:22:05.863Z,-11.80
2023-02-22T22:24:34.788Z,-11.79
2023-02-22T22:27:06.603Z,-11.81
2023-02-22T22:29:34.686Z,-11.80
2023-02-22T22:32:03.374Z,-11.82
2023-02-22T22:34:31.008Z,-11.80
2023-02-22T22:36:58.363Z,-11.73
2023-02-22T22:39:26.571Z,-11.72
2023-02-22T22:41:53.968Z,-11.71
2023-02-22T22:44:23.167Z,-11.75
2023-02-22T22:46:53.837Z,-11.73
2023-02-22T22:49:23.630Z,-11.75
2023-02-22T22:51:51.347Z,-11.73
2023-02-22T22:54:18.795Z,-11.77
2023-02-22T22:56:46.593Z,-11.75
2023-02-22T22:59:14.110Z,-11.77
2023-02-22T23:01:46.504Z,-11.82
2023-02-22T23:04:18.403Z,-11.88
2023-02-22T23:06:47.383Z,-11.91
2023-02-22T23:09:18.896Z,-11.95
2023-02-22T23:11:50.878Z,-12.07
2023-02-22T23:14:20.780Z,-12.03
2023-02-22T23:16:51.096Z,-12.11
2023-02-22T23:19:19.765Z,-12.16
2023-02-22T23:21:48.830Z,-12.21
2023-02-22T23:24:18.579Z,-12.24
2023-02-22T23:26:48.876Z,-12.30
2023-02-22T23:29:17.972Z,-12.32
2023-02-22T23:31:48.472Z,-12.33
2023-02-22T23:34:21.275Z,-12.35
2023-02-22T23:36:49.256Z,-12.33
2023-02-22T23:39:22.612Z,-12.37
2023-02-22T23:41:50.584Z,-12.41
2023-02-22T23:44:18.043Z,-12.41
2023-02-22T23:46:48.699Z,-12.46
2023-02-22T23:49:20.426Z,-12.50
2023-02-22T23:51:48.675Z,-12.54
2023-02-22T23:54:19.413Z,-12.70
2023-02-22T23:56:53.906Z,-12.62
2023-02-22T23:59:21.190Z,-12.62
